sensor_id;sensor_type;location;lat;lon;timestamp;temperature;humidity
3023;DHT22;1521;53.584;9.938;2023-06-05T00:00:53;10.50;99.90
3023;DHT22;1521;53.584;9.938;2023-06-05T00:03:19;10.50;1.00
3023;DHT22;1521;53.584;9.938;2023-06-05T00:05:45;10.50;1.00
3023;DHT22;1521;53.584;9.938;2023-06-05T00:08:10;10.40;99.90
3023;DHT22;1521;53.584;9.938;2023-06-05T00:10:37;10.40;99.90
3023;DHT22;1521;53.584;9.938;2023-06-05T00:13:02;10.40;99.90
3023;DHT22;1521;53.584;9.938;2023-06-05T00:15:28;10.30;1.00
3023;DHT22;1521;53.584;9.938;2023-06-05T00:17:54;10.30;99.90
3023;DHT22;1521;53.584;9.938;2023-06-05T00:20:20;10.30;99.90
3023;DHT22;1521;53.584;9.938;2023-06-05T00:22:46;10.30;22.10
3023;DHT22;1521;53.584;9.938;2023-06-05T00:25:12;10.20;99.90
3023;DHT22;1521;53.584;9.938;2023-06-05T00:27:38;10.20;1.00
3023;DHT22;1521;53.584;9.938;2023-06-05T00:30:07;10.20;1.00
3023;DHT22;1521;53.584;9.938;2023-06-05T00:32:33;10.20;1.00
3023;DHT22;1521;53.584;9.938;2023-06-05T00:34:59;10.10;1.00
3023;DHT22;1521;53.584;9.938;2023-06-05T00:37:25;10.10;99.90
3023;DHT22;1521;53.584;9.938;2023-06-05T00:39:52;10.10;67.10
3023;DHT22;1521;53.584;9.938;2023-06-05T00:42:18;10.00;99.90
3023;DHT22;1521;53.584;9.938;2023-06-05T00:44:43;10.00;1.00
3023;DHT22;1521;53.584;9.938;2023-06-05T00:47:09;10.00;1.00
3023;DHT22;1521;53.584;9.938;2023-06-05T00:49:36;9.90;99.90
3023;DHT22;1521;53.584;9.938;2023-06-05T00:52:02;9.90;99.90
3023;DHT22;1521;53.584;9.938;2023-06-05T00:54:27;9.90;99.90
3023;DHT22;1521;53.584;9.938;2023-06-05T00:56:53;9.80;1.00
3023;DHT22;1521;53.584;9.938;2023-06-05T00:59:20;9.80;99.90
3023;DHT22;1521;53.584;9.938;2023-06-05T01:01:45;9.80;99.90
3023;DHT22;1521;53.584;9.938;2023-06-05T01:04:13;9.70;99.90
3023;DHT22;1521;53.584;9.938;2023-06-05T01:06:39;9.70;1.00
3023;DHT22;1521;53.584;9.938;2023-06-05T01:09:07;9.70;99.90
3023;DHT22;1521;53.584;9.938;2023-06-05T01:11:59;9.70;1.00
3023;DHT22;1521;53.584;9.938;2023-06-05T01:14:28;9.60;99.90
3023;DHT22;1521;53.584;9.938;2023-06-05T01:16:56;9.60;99.90
3023;DHT22;1521;53.584;9.938;2023-06-05T01:19:26;9.60;1.00
3023;DHT22;1521;53.584;9.938;2023-06-05T01:22:00;9.50;1.00
3023;DHT22;1521;53.584;9.938;2023-06-05T01:24:26;9.50;1.00
3023;DHT22;1521;53.584;9.938;2023-06-05T01:32:05;9.40;20.10
3023;DHT22;1521;53.584;9.938;2023-06-05T01:34:32;9.40;1.00
3023;DHT22;1521;53.584;9.938;2023-06-05T01:37:00;9.30;1.00
3023;DHT22;1521;53.584;9.938;2023-06-05T01:39:26;9.30;1.00
3023;DHT22;1521;53.584;9.938;2023-06-05T01:41:54;9.30;34.40
3023;DHT22;1521;53.584;9.938;2023-06-05T01:44:20;9.30;99.90
3023;DHT22;1521;53.584;9.938;2023-06-05T01:46:47;9.20;83.90
3023;DHT22;1521;53.584;9.938;2023-06-05T01:49:13;9.20;66.70
3023;DHT22;1521;53.584;9.938;2023-06-05T01:51:38;9.10;99.90
3023;DHT22;1521;53.584;9.938;2023-06-05T01:54:04;9.10;99.90
3023;DHT22;1521;53.584;9.938;2023-06-05T01:56:31;9.10;99.90
3023;DHT22;1521;53.584;9.938;2023-06-05T01:58:57;9.10;99.90
3023;DHT22;1521;53.584;9.938;2023-06-05T02:01:23;9.10;99.90
3023;DHT22;1521;53.584;9.938;2023-06-05T02:03:49;9.10;99.90
3023;DHT22;1521;53.584;9.938;2023-06-05T02:06:16;9.10;99.90
3023;DHT22;1521;53.584;9.938;2023-06-05T02:08:42;9.00;99.90
3023;DHT22;1521;53.584;9.938;2023-06-05T02:11:08;9.00;99.90
3023;DHT22;1521;53.584;9.938;2023-06-05T02:13:39;9.00;99.90
3023;DHT22;1521;53.584;9.938;2023-06-05T02:16:09;9.00;99.90
3023;DHT22;1521;53.584;9.938;2023-06-05T02:18:34;8.90;99.90
3023;DHT22;1521;53.584;9.938;2023-06-05T02:21:03;8.90;99.90
3023;DHT22;1521;53.584;9.938;2023-06-05T02:23:28;8.90;99.90
3023;DHT22;1521;53.584;9.938;2023-06-05T02:25:55;8.90;99.90
3023;DHT22;1521;53.584;9.938;2023-06-05T02:28:20;8.90;99.90
3023;DHT22;1521;53.584;9.938;2023-06-05T02:30:46;8.90;99.90
3023;DHT22;1521;53.584;9.938;2023-06-05T02:33:13;8.90;99.90
3023;DHT22;1521;53.584;9.938;2023-06-05T02:35:40;8.80;99.90
3023;DHT22;1521;53.584;9.938;2023-06-05T02:38:08;8.80;99.90
3023;DHT22;1521;53.584;9.938;2023-06-05T02:40:35;8.80;99.90
3023;DHT22;1521;53.584;9.938;2023-06-05T02:43:01;8.80;99.90
3023;DHT22;1521;53.584;9.938;2023-06-05T02:45:27;8.70;99.90
3023;DHT22;1521;53.584;9.938;2023-06-05T02:47:52;8.70;99.90
3023;DHT22;1521;53.584;9.938;2023-06-05T02:50:18;8.70;99.90
3023;DHT22;1521;53.584;9.938;2023-06-05T02:52:44;8.70;99.90
3023;DHT22;1521;53.584;9.938;2023-06-05T02:55:10;8.70;99.90
3023;DHT22;1521;53.584;9.938;2023-06-05T02:57:35;8.70;99.90
3023;DHT22;1521;53.584;9.938;2023-06-05T03:00:10;8.70;99.90
3023;DHT22;1521;53.584;9.938;2023-06-05T03:02:42;8.70;99.90
3023;DHT22;1521;53.584;9.938;2023-06-05T03:05:08;8.60;99.90
3023;DHT22;1521;53.584;9.938;2023-06-05T03:07:34;8.60;99.90
3023;DHT22;1521;53.584;9.938;2023-06-05T03:10:00;8.60;99.90
3023;DHT22;1521;53.584;9.938;2023-06-05T03:12:26;8.60;99.90
3023;DHT22;1521;53.584;9.938;2023-06-05T03:14:52;8.60;99.90
3023;DHT22;1521;53.584;9.938;2023-06-05T03:17:17;8.60;99.90
3023;DHT22;1521;53.584;9.938;2023-06-05T03:19:43;8.60;99.90
3023;DHT22;1521;53.584;9.938;2023-06-05T03:22:08;8.60;99.90
3023;DHT22;1521;53.584;9.938;2023-06-05T03:24:34;8.60;99.90
3023;DHT22;1521;53.584;9.938;2023-06-05T03:27:03;8.60;99.90
3023;DHT22;1521;53.584;9.938;2023-06-05T03:29:29;8.60;99.90
3023;DHT22;1521;53.584;9.938;2023-06-05T03:31:55;8.60;99.90
3023;DHT22;1521;53.584;9.938;2023-06-05T03:34:21;8.60;99.90
3023;DHT22;1521;53.584;9.938;2023-06-05T03:36:51;8.70;99.90
3023;DHT22;1521;53.584;9.938;2023-06-05T03:39:17;8.70;99.90
3023;DHT22;1521;53.584;9.938;2023-06-05T03:41:43;8.70;99.90
3023;DHT22;1521;53.584;9.938;2023-06-05T03:44:08;8.70;99.90
3023;DHT22;1521;53.584;9.938;2023-06-05T03:46:34;8.70;99.90
3023;DHT22;1521;53.584;9.938;2023-06-05T03:49:01;8.80;99.90
3023;DHT22;1521;53.584;9.938;2023-06-05T03:51:31;8.80;99.90
3023;DHT22;1521;53.584;9.938;2023-06-05T03:53:59;8.90;99.90
3023;DHT22;1521;53.584;9.938;2023-06-05T03:56:26;8.90;99.90
3023;DHT22;1521;53.584;9.938;2023-06-05T03:58:58;8.90;99.90
3023;DHT22;1521;53.584;9.938;2023-06-05T04:01:33;9.00;99.90
3023;DHT22;1521;53.584;9.938;2023-06-05T04:04:05;9.10;99.90
3023;DHT22;1521;53.584;9.938;2023-06-05T04:06:31;9.10;99.90
3023;DHT22;1521;53.584;9.938;2023-06-05T04:08:58;9.10;99.90
3023;DHT22;1521;53.584;9.938;2023-06-05T04:11:24;9.20;99.90
3023;DHT22;1521;53.584;9.938;2023-06-05T04:13:53;9.20;99.90
3023;DHT22;1521;53.584;9.938;2023-06-05T04:16:19;9.20;99.90
3023;DHT22;1521;53.584;9.938;2023-06-05T04:18:45;9.30;99.90
3023;DHT22;1521;53.584;9.938;2023-06-05T04:21:10;9.40;99.90
3023;DHT22;1521;53.584;9.938;2023-06-05T04:23:36;9.40;99.90
3023;DHT22;1521;53.584;9.938;2023-06-05T04:26:02;9.50;99.90
3023;DHT22;1521;53.584;9.938;2023-06-05T04:28:28;9.50;99.90
3023;DHT22;1521;53.584;9.938;2023-06-05T04:30:55;9.60;99.90
3023;DHT22;1521;53.584;9.938;2023-06-05T04:33:23;9.70;99.90
3023;DHT22;1521;53.584;9.938;2023-06-05T04:35:49;9.80;99.90
3023;DHT22;1521;53.584;9.938;2023-06-05T04:38:14;9.90;99.90
3023;DHT22;1521;53.584;9.938;2023-06-05T04:40:40;10.00;99.90
3023;DHT22;1521;53.584;9.938;2023-06-05T04:43:06;10.10;99.90
3023;DHT22;1521;53.584;9.938;2023-06-05T04:45:34;10.30;99.90
3023;DHT22;1521;53.584;9.938;2023-06-05T04:48:00;10.40;99.90
3023;DHT22;1521;53.584;9.938;2023-06-05T04:50:27;10.60;99.90
3023;DHT22;1521;53.584;9.938;2023-06-05T04:52:53;10.70;99.90
3023;DHT22;1521;53.584;9.938;2023-06-05T04:55:19;10.90;99.90
3023;DHT22;1521;53.584;9.938;2023-06-05T04:57:46;11.00;99.90
3023;DHT22;1521;53.584;9.938;2023-06-05T05:00:16;11.10;99.90
3023;DHT22;1521;53.584;9.938;2023-06-05T05:02:42;11.20;99.90
3023;DHT22;1521;53.584;9.938;2023-06-05T05:05:08;11.40;99.90
3023;DHT22;1521;53.584;9.938;2023-06-05T05:07:34;11.50;99.90
3023;DHT22;1521;53.584;9.938;2023-06-05T05:10:01;11.60;99.90
3023;DHT22;1521;53.584;9.938;2023-06-05T05:12:26;11.80;99.90
3023;DHT22;1521;53.584;9.938;2023-06-05T05:14:52;11.80;1.00
3023;DHT22;1521;53.584;9.938;2023-06-05T05:17:18;12.00;1.00
3023;DHT22;1521;53.584;9.938;2023-06-05T05:19:45;12.20;1.00
3023;DHT22;1521;53.584;9.938;2023-06-05T05:22:10;12.40;1.00
3023;DHT22;1521;53.584;9.938;2023-06-05T05:24:36;12.60;1.00
3023;DHT22;1521;53.584;9.938;2023-06-05T05:27:02;12.70;99.90
3023;DHT22;1521;53.584;9.938;2023-06-05T05:29:28;12.80;1.00
3023;DHT22;1521;53.584;9.938;2023-06-05T05:31:54;13.00;99.90
3023;DHT22;1521;53.584;9.938;2023-06-05T05:34:21;13.10;99.90
3023;DHT22;1521;53.584;9.938;2023-06-05T05:36:46;13.30;1.00
3023;DHT22;1521;53.584;9.938;2023-06-05T05:39:12;13.50;99.90
3023;DHT22;1521;53.584;9.938;2023-06-05T05:41:37;13.60;88.10
3023;DHT22;1521;53.584;9.938;2023-06-05T05:44:03;13.80;99.90
3023;DHT22;1521;53.584;9.938;2023-06-05T05:46:28;14.00;1.00
3023;DHT22;1521;53.584;9.938;2023-06-05T05:48:54;14.20;99.90
3023;DHT22;1521;53.584;9.938;2023-06-05T05:51:20;14.40;99.90
3023;DHT22;1521;53.584;9.938;2023-06-05T05:53:46;14.60;98.70
3023;DHT22;1521;53.584;9.938;2023-06-05T05:56:12;14.70;51.10
3023;DHT22;1521;53.584;9.938;2023-06-05T05:58:37;15.00;23.30
3023;DHT22;1521;53.584;9.938;2023-06-05T06:01:03;15.10;8.10
3023;DHT22;1521;53.584;9.938;2023-06-05T06:03:28;15.20;1.00
3023;DHT22;1521;53.584;9.938;2023-06-05T06:05:55;15.40;1.00
3023;DHT22;1521;53.584;9.938;2023-06-05T06:08:22;15.60;1.00
3023;DHT22;1521;53.584;9.938;2023-06-05T06:10:48;15.70;1.00
3023;DHT22;1521;53.584;9.938;2023-06-05T06:13:13;15.90;1.00
3023;DHT22;1521;53.584;9.938;2023-06-05T06:15:39;16.10;1.00
3023;DHT22;1521;53.584;9.938;2023-06-05T06:18:05;16.40;1.00
3023;DHT22;1521;53.584;9.938;2023-06-05T06:20:31;16.70;1.00
3023;DHT22;1521;53.584;9.938;2023-06-05T06:22:58;16.90;1.00
3023;DHT22;1521;53.584;9.938;2023-06-05T06:25:24;17.20;1.00
3023;DHT22;1521;53.584;9.938;2023-06-05T06:27:54;17.30;1.00
3023;DHT22;1521;53.584;9.938;2023-06-05T06:30:20;17.50;1.00
3023;DHT22;1521;53.584;9.938;2023-06-05T06:32:47;17.70;1.00
3023;DHT22;1521;53.584;9.938;2023-06-05T06:35:13;17.80;1.00
3023;DHT22;1521;53.584;9.938;2023-06-05T06:37:40;17.90;1.00
3023;DHT22;1521;53.584;9.938;2023-06-05T06:40:06;18.00;1.00
3023;DHT22;1521;53.584;9.938;2023-06-05T06:42:36;18.10;1.00
3023;DHT22;1521;53.584;9.938;2023-06-05T06:45:02;18.30;1.00
3023;DHT22;1521;53.584;9.938;2023-06-05T06:47:29;18.50;1.00
3023;DHT22;1521;53.584;9.938;2023-06-05T06:49:55;18.70;1.00
3023;DHT22;1521;53.584;9.938;2023-06-05T06:52:22;18.90;1.00
3023;DHT22;1521;53.584;9.938;2023-06-05T06:54:48;18.90;1.00
3023;DHT22;1521;53.584;9.938;2023-06-05T06:57:13;19.10;1.00
3023;DHT22;1521;53.584;9.938;2023-06-05T06:59:39;19.40;1.00
3023;DHT22;1521;53.584;9.938;2023-06-05T07:02:17;19.60;1.00
3023;DHT22;1521;53.584;9.938;2023-06-05T07:04:43;19.90;1.00
3023;DHT22;1521;53.584;9.938;2023-06-05T07:07:11;20.10;1.00
3023;DHT22;1521;53.584;9.938;2023-06-05T07:09:38;20.30;1.00
3023;DHT22;1521;53.584;9.938;2023-06-05T07:12:04;20.40;1.00
3023;DHT22;1521;53.584;9.938;2023-06-05T07:14:31;20.60;1.00
3023;DHT22;1521;53.584;9.938;2023-06-05T07:16:58;20.80;1.00
3023;DHT22;1521;53.584;9.938;2023-06-05T07:19:26;21.00;1.00
3023;DHT22;1521;53.584;9.938;2023-06-05T07:21:52;21.10;1.00
3023;DHT22;1521;53.584;9.938;2023-06-05T07:24:17;21.20;1.00
3023;DHT22;1521;53.584;9.938;2023-06-05T07:26:44;21.50;1.00
3023;DHT22;1521;53.584;9.938;2023-06-05T07:29:10;21.60;1.00
3023;DHT22;1521;53.584;9.938;2023-06-05T07:31:36;21.70;1.00
3023;DHT22;1521;53.584;9.938;2023-06-05T07:34:02;21.80;1.00
3023;DHT22;1521;53.584;9.938;2023-06-05T07:36:28;22.20;1.00
3023;DHT22;1521;53.584;9.938;2023-06-05T07:38:54;22.30;1.00
3023;DHT22;1521;53.584;9.938;2023-06-05T07:41:21;22.50;1.00
3023;DHT22;1521;53.584;9.938;2023-06-05T07:43:47;22.50;1.00
3023;DHT22;1521;53.584;9.938;2023-06-05T07:46:12;22.40;1.00
3023;DHT22;1521;53.584;9.938;2023-06-05T07:48:40;22.60;1.00
3023;DHT22;1521;53.584;9.938;2023-06-05T07:51:06;22.60;1.00
3023;DHT22;1521;53.584;9.938;2023-06-05T07:53:34;22.90;1.00
3023;DHT22;1521;53.584;9.938;2023-06-05T07:56:00;23.10;1.00
3023;DHT22;1521;53.584;9.938;2023-06-05T07:58:25;23.20;1.00
3023;DHT22;1521;53.584;9.938;2023-06-05T08:00:53;23.40;1.00
3023;DHT22;1521;53.584;9.938;2023-06-05T08:03:19;23.60;1.00
3023;DHT22;1521;53.584;9.938;2023-06-05T08:05:46;23.70;1.00
3023;DHT22;1521;53.584;9.938;2023-06-05T08:08:12;23.90;1.00
3023;DHT22;1521;53.584;9.938;2023-06-05T08:10:38;24.30;1.00
3023;DHT22;1521;53.584;9.938;2023-06-05T08:13:03;24.40;1.00
3023;DHT22;1521;53.584;9.938;2023-06-05T08:15:29;24.60;1.00
3023;DHT22;1521;53.584;9.938;2023-06-05T08:17:54;24.50;99.90
3023;DHT22;1521;53.584;9.938;2023-06-05T08:20:20;24.20;99.90
3023;DHT22;1521;53.584;9.938;2023-06-05T08:22:45;24.20;99.90
3023;DHT22;1521;53.584;9.938;2023-06-05T08:25:11;24.20;99.90
3023;DHT22;1521;53.584;9.938;2023-06-05T08:27:37;24.40;99.90
3023;DHT22;1521;53.584;9.938;2023-06-05T08:30:03;24.50;99.90
3023;DHT22;1521;53.584;9.938;2023-06-05T08:32:29;24.30;99.90
3023;DHT22;1521;53.584;9.938;2023-06-05T08:34:54;24.60;99.90
3023;DHT22;1521;53.584;9.938;2023-06-05T08:37:20;24.90;99.90
3023;DHT22;1521;53.584;9.938;2023-06-05T08:39:46;25.20;99.90
3023;DHT22;1521;53.584;9.938;2023-06-05T08:42:12;25.10;99.90
3023;DHT22;1521;53.584;9.938;2023-06-05T08:44:44;25.40;99.90
3023;DHT22;1521;53.584;9.938;2023-06-05T08:47:14;25.50;99.90
3023;DHT22;1521;53.584;9.938;2023-06-05T08:49:41;25.60;99.90
3023;DHT22;1521;53.584;9.938;2023-06-05T08:52:07;25.80;99.90
3023;DHT22;1521;53.584;9.938;2023-06-05T08:54:37;26.10;99.90
3023;DHT22;1521;53.584;9.938;2023-06-05T08:57:04;26.40;99.90
3023;DHT22;1521;53.584;9.938;2023-06-05T08:59:32;26.40;99.90
3023;DHT22;1521;53.584;9.938;2023-06-05T09:01:58;26.60;99.90
3023;DHT22;1521;53.584;9.938;2023-06-05T09:04:25;26.80;99.90
3023;DHT22;1521;53.584;9.938;2023-06-05T09:06:56;27.10;99.90
3023;DHT22;1521;53.584;9.938;2023-06-05T09:09:22;27.20;99.90
3023;DHT22;1521;53.584;9.938;2023-06-05T09:12:03;27.30;99.90
3023;DHT22;1521;53.584;9.938;2023-06-05T09:14:30;27.20;99.90
3023;DHT22;1521;53.584;9.938;2023-06-05T09:17:02;27.20;99.90
3023;DHT22;1521;53.584;9.938;2023-06-05T09:19:41;27.10;99.90
3023;DHT22;1521;53.584;9.938;2023-06-05T09:22:09;27.20;99.90
3023;DHT22;1521;53.584;9.938;2023-06-05T09:24:35;27.50;99.90
3023;DHT22;1521;53.584;9.938;2023-06-05T09:31:56;28.40;99.90
3023;DHT22;1521;53.584;9.938;2023-06-05T09:34:25;28.50;99.90
3023;DHT22;1521;53.584;9.938;2023-06-05T09:36:51;28.70;99.90
3023;DHT22;1521;53.584;9.938;2023-06-05T09:39:18;28.80;99.90
3023;DHT22;1521;53.584;9.938;2023-06-05T09:41:48;28.60;99.90
3023;DHT22;1521;53.584;9.938;2023-06-05T09:44:15;28.80;99.90
3023;DHT22;1521;53.584;9.938;2023-06-05T09:47:01;28.90;99.90
3023;DHT22;1521;53.584;9.938;2023-06-05T09:49:46;29.10;99.90
3023;DHT22;1521;53.584;9.938;2023-06-05T09:52:13;29.50;99.90
3023;DHT22;1521;53.584;9.938;2023-06-05T09:54:49;29.40;99.90
3023;DHT22;1521;53.584;9.938;2023-06-05T09:57:19;29.20;99.90
3023;DHT22;1521;53.584;9.938;2023-06-05T09:59:53;29.30;99.90
3023;DHT22;1521;53.584;9.938;2023-06-05T10:02:24;29.10;99.90
3023;DHT22;1521;53.584;9.938;2023-06-05T10:04:59;29.50;99.90
3023;DHT22;1521;53.584;9.938;2023-06-05T10:07:25;29.50;99.90
3023;DHT22;1521;53.584;9.938;2023-06-05T10:09:52;29.50;99.90
3023;DHT22;1521;53.584;9.938;2023-06-05T10:12:18;29.80;99.90
3023;DHT22;1521;53.584;9.938;2023-06-05T10:14:45;29.90;99.90
3023;DHT22;1521;53.584;9.938;2023-06-05T10:17:13;29.60;99.90
3023;DHT22;1521;53.584;9.938;2023-06-05T10:19:43;29.60;99.90
3023;DHT22;1521;53.584;9.938;2023-06-05T10:22:10;29.80;99.90
3023;DHT22;1521;53.584;9.938;2023-06-05T10:24:41;29.90;99.90
3023;DHT22;1521;53.584;9.938;2023-06-05T10:35:25;30.40;99.90
3023;DHT22;1521;53.584;9.938;2023-06-05T10:40:24;30.50;99.90
3023;DHT22;1521;53.584;9.938;2023-06-05T10:42:50;30.50;99.90
3023;DHT22;1521;53.584;9.938;2023-06-05T10:45:29;30.80;99.90
3023;DHT22;1521;53.584;9.938;2023-06-05T10:47:56;30.90;99.90
3023;DHT22;1521;53.584;9.938;2023-06-05T10:50:23;31.00;99.90
3023;DHT22;1521;53.584;9.938;2023-06-05T10:52:52;31.20;99.90
3023;DHT22;1521;53.584;9.938;2023-06-05T10:55:19;31.20;99.90
3023;DHT22;1521;53.584;9.938;2023-06-05T11:00:33;31.50;99.90
3023;DHT22;1521;53.584;9.938;2023-06-05T11:02:59;31.60;99.90
3023;DHT22;1521;53.584;9.938;2023-06-05T11:05:26;31.90;99.90
3023;DHT22;1521;53.584;9.938;2023-06-05T11:10:35;32.00;99.90
3023;DHT22;1521;53.584;9.938;2023-06-05T11:13:01;32.20;99.90
3023;DHT22;1521;53.584;9.938;2023-06-05T11:15:40;32.40;99.90
3023;DHT22;1521;53.584;9.938;2023-06-05T11:18:25;32.20;99.90
3023;DHT22;1521;53.584;9.938;2023-06-05T11:20:51;32.10;99.90
3023;DHT22;1521;53.584;9.938;2023-06-05T11:23:17;31.80;99.90
3023;DHT22;1521;53.584;9.938;2023-06-05T11:25:43;31.90;99.90
3023;DHT22;1521;53.584;9.938;2023-06-05T11:28:08;31.80;99.90
3023;DHT22;1521;53.584;9.938;2023-06-05T11:30:42;31.90;99.90
3023;DHT22;1521;53.584;9.938;2023-06-05T11:35:42;32.00;99.90
3023;DHT22;1521;53.584;9.938;2023-06-05T11:38:18;32.10;99.90
3023;DHT22;1521;53.584;9.938;2023-06-05T11:40:45;32.40;99.90
3023;DHT22;1521;53.584;9.938;2023-06-05T11:43:14;31.90;99.90
3023;DHT22;1521;53.584;9.938;2023-06-05T11:45:49;31.60;99.90
3023;DHT22;1521;53.584;9.938;2023-06-05T11:48:15;31.70;99.90
3023;DHT22;1521;53.584;9.938;2023-06-05T11:50:53;31.50;99.90
3023;DHT22;1521;53.584;9.938;2023-06-05T11:53:20;30.60;99.90
3023;DHT22;1521;53.584;9.938;2023-06-05T11:55:46;29.30;99.90
3023;DHT22;1521;53.584;9.938;2023-06-05T11:58:21;28.40;99.90
3023;DHT22;1521;53.584;9.938;2023-06-05T12:00:47;28.70;99.90
3023;DHT22;1521;53.584;9.938;2023-06-05T12:03:20;29.80;99.90
3023;DHT22;1521;53.584;9.938;2023-06-05T12:05:47;30.60;99.90
3023;DHT22;1521;53.584;9.938;2023-06-05T12:08:26;31.20;99.90
3023;DHT22;1521;53.584;9.938;2023-06-05T12:10:53;31.50;99.90
3023;DHT22;1521;53.584;9.938;2023-06-05T12:13:20;31.60;99.90
3023;DHT22;1521;53.584;9.938;2023-06-05T12:15:59;31.80;99.90
3023;DHT22;1521;53.584;9.938;2023-06-05T12:18:32;31.50;99.90
3023;DHT22;1521;53.584;9.938;2023-06-05T12:20:59;31.10;99.90
3023;DHT22;1521;53.584;9.938;2023-06-05T12:23:24;30.80;99.90
3023;DHT22;1521;53.584;9.938;2023-06-05T12:26:03;30.30;99.90
3023;DHT22;1521;53.584;9.938;2023-06-05T12:28:30;29.70;99.90
3023;DHT22;1521;53.584;9.938;2023-06-05T12:30:57;29.80;99.90
3023;DHT22;1521;53.584;9.938;2023-06-05T12:33:23;30.30;99.90
3023;DHT22;1521;53.584;9.938;2023-06-05T12:36:08;31.20;99.90
3023;DHT22;1521;53.584;9.938;2023-06-05T12:38:41;32.00;99.90
3023;DHT22;1521;53.584;9.938;2023-06-05T12:41:08;32.60;99.90
3023;DHT22;1521;53.584;9.938;2023-06-05T12:43:34;32.60;99.90
3023;DHT22;1521;53.584;9.938;2023-06-05T12:46:00;32.50;99.90
3023;DHT22;1521;53.584;9.938;2023-06-05T12:48:26;33.10;99.90
3023;DHT22;1521;53.584;9.938;2023-06-05T12:50:52;33.40;99.90
3023;DHT22;1521;53.584;9.938;2023-06-05T12:53:18;33.40;99.90
3023;DHT22;1521;53.584;9.938;2023-06-05T12:55:44;33.40;99.90
3023;DHT22;1521;53.584;9.938;2023-06-05T12:58:10;33.30;99.90
3023;DHT22;1521;53.584;9.938;2023-06-05T13:00:35;32.90;99.90
3023;DHT22;1521;53.584;9.938;2023-06-05T13:03:02;31.90;99.90
3023;DHT22;1521;53.584;9.938;2023-06-05T13:05:29;30.50;99.90
3023;DHT22;1521;53.584;9.938;2023-06-05T13:07:57;29.40;99.90
3023;DHT22;1521;53.584;9.938;2023-06-05T13:10:23;28.50;99.90
3023;DHT22;1521;53.584;9.938;2023-06-05T13:12:48;27.80;99.90
3023;DHT22;1521;53.584;9.938;2023-06-05T13:15:14;27.30;99.90
3023;DHT22;1521;53.584;9.938;2023-06-05T13:17:40;26.80;99.90
3023;DHT22;1521;53.584;9.938;2023-06-05T13:20:06;26.40;99.90
3023;DHT22;1521;53.584;9.938;2023-06-05T13:22:32;26.20;99.90
3023;DHT22;1521;53.584;9.938;2023-06-05T13:24:58;26.20;99.90
3023;DHT22;1521;53.584;9.938;2023-06-05T13:27:23;26.00;99.90
3023;DHT22;1521;53.584;9.938;2023-06-05T13:29:49;25.80;99.90
3023;DHT22;1521;53.584;9.938;2023-06-05T13:32:15;25.70;99.90
3023;DHT22;1521;53.584;9.938;2023-06-05T13:34:40;25.60;99.90
3023;DHT22;1521;53.584;9.938;2023-06-05T13:37:06;25.70;99.90
3023;DHT22;1521;53.584;9.938;2023-06-05T13:39:31;25.90;99.90
3023;DHT22;1521;53.584;9.938;2023-06-05T13:41:57;26.10;99.90
3023;DHT22;1521;53.584;9.938;2023-06-05T13:44:22;27.10;99.90
3023;DHT22;1521;53.584;9.938;2023-06-05T13:46:49;28.20;99.90
3023;DHT22;1521;53.584;9.938;2023-06-05T13:49:14;29.10;99.90
3023;DHT22;1521;53.584;9.938;2023-06-05T13:51:41;29.80;99.90
3023;DHT22;1521;53.584;9.938;2023-06-05T13:54:07;29.90;99.90
3023;DHT22;1521;53.584;9.938;2023-06-05T13:56:33;29.10;99.90
3023;DHT22;1521;53.584;9.938;2023-06-05T13:58:58;28.10;99.90
3023;DHT22;1521;53.584;9.938;2023-06-05T14:01:24;27.70;99.90
3023;DHT22;1521;53.584;9.938;2023-06-05T14:03:50;27.60;99.90
3023;DHT22;1521;53.584;9.938;2023-06-05T14:06:17;27.50;99.90
3023;DHT22;1521;53.584;9.938;2023-06-05T14:08:43;27.80;99.90
3023;DHT22;1521;53.584;9.938;2023-06-05T14:11:09;27.60;99.90
3023;DHT22;1521;53.584;9.938;2023-06-05T14:13:35;27.70;99.90
3023;DHT22;1521;53.584;9.938;2023-06-05T14:16:02;28.20;99.90
3023;DHT22;1521;53.584;9.938;2023-06-05T14:18:29;28.90;99.90
3023;DHT22;1521;53.584;9.938;2023-06-05T14:20:55;29.50;99.90
3023;DHT22;1521;53.584;9.938;2023-06-05T14:23:21;30.20;99.90
3023;DHT22;1521;53.584;9.938;2023-06-05T14:25:49;30.60;99.90
3023;DHT22;1521;53.584;9.938;2023-06-05T14:28:15;30.90;99.90
3023;DHT22;1521;53.584;9.938;2023-06-05T14:30:40;30.90;99.90
3023;DHT22;1521;53.584;9.938;2023-06-05T14:33:06;31.10;99.90
3023;DHT22;1521;53.584;9.938;2023-06-05T14:35:32;31.30;99.90
3023;DHT22;1521;53.584;9.938;2023-06-05T14:37:57;31.30;99.90
3023;DHT22;1521;53.584;9.938;2023-06-05T14:40:23;31.50;99.90
3023;DHT22;1521;53.584;9.938;2023-06-05T14:42:49;31.50;99.90
3023;DHT22;1521;53.584;9.938;2023-06-05T14:45:15;31.50;99.90
3023;DHT22;1521;53.584;9.938;2023-06-05T14:47:40;31.50;99.90
3023;DHT22;1521;53.584;9.938;2023-06-05T14:50:07;31.40;99.90
3023;DHT22;1521;53.584;9.938;2023-06-05T14:52:33;30.80;99.90
3023;DHT22;1521;53.584;9.938;2023-06-05T14:54:58;30.20;99.90
3023;DHT22;1521;53.584;9.938;2023-06-05T14:57:24;29.50;99.90
3023;DHT22;1521;53.584;9.938;2023-06-05T14:59:50;28.40;99.90
3023;DHT22;1521;53.584;9.938;2023-06-05T15:02:16;27.70;99.90
3023;DHT22;1521;53.584;9.938;2023-06-05T15:04:42;27.20;99.90
3023;DHT22;1521;53.584;9.938;2023-06-05T15:07:08;26.90;99.90
3023;DHT22;1521;53.584;9.938;2023-06-05T15:09:33;27.10;99.90
3023;DHT22;1521;53.584;9.938;2023-06-05T15:11:59;27.80;99.90
3023;DHT22;1521;53.584;9.938;2023-06-05T15:14:25;28.50;99.90
3023;DHT22;1521;53.584;9.938;2023-06-05T15:16:51;29.10;99.90
3023;DHT22;1521;53.584;9.938;2023-06-05T15:19:16;29.50;99.90
3023;DHT22;1521;53.584;9.938;2023-06-05T15:21:42;29.70;99.90
3023;DHT22;1521;53.584;9.938;2023-06-05T15:24:08;29.80;99.90
3023;DHT22;1521;53.584;9.938;2023-06-05T15:26:33;29.30;99.90
3023;DHT22;1521;53.584;9.938;2023-06-05T15:28:59;28.60;99.90
3023;DHT22;1521;53.584;9.938;2023-06-05T15:31:24;27.90;99.90
3023;DHT22;1521;53.584;9.938;2023-06-05T15:33:50;27.50;99.90
3023;DHT22;1521;53.584;9.938;2023-06-05T15:36:16;26.90;99.90
3023;DHT22;1521;53.584;9.938;2023-06-05T15:38:41;26.50;99.90
3023;DHT22;1521;53.584;9.938;2023-06-05T15:41:07;26.30;99.90
3023;DHT22;1521;53.584;9.938;2023-06-05T15:43:32;26.10;99.90
3023;DHT22;1521;53.584;9.938;2023-06-05T15:45:58;25.70;99.90
3023;DHT22;1521;53.584;9.938;2023-06-05T15:48:23;25.60;99.90
3023;DHT22;1521;53.584;9.938;2023-06-05T15:50:50;25.30;99.90
3023;DHT22;1521;53.584;9.938;2023-06-05T15:53:16;25.20;99.90
3023;DHT22;1521;53.584;9.938;2023-06-05T15:55:42;25.40;99.90
3023;DHT22;1521;53.584;9.938;2023-06-05T15:58:09;25.50;99.90
3023;DHT22;1521;53.584;9.938;2023-06-05T16:00:37;25.60;99.90
3023;DHT22;1521;53.584;9.938;2023-06-05T16:03:03;25.60;99.90
3023;DHT22;1521;53.584;9.938;2023-06-05T16:05:29;25.70;99.90
3023;DHT22;1521;53.584;9.938;2023-06-05T16:07:54;25.60;99.90
3023;DHT22;1521;53.584;9.938;2023-06-05T16:10:20;25.20;99.90
3023;DHT22;1521;53.584;9.938;2023-06-05T16:12:46;25.00;99.90
3023;DHT22;1521;53.584;9.938;2023-06-05T16:15:12;25.10;99.90
3023;DHT22;1521;53.584;9.938;2023-06-05T16:17:40;25.40;99.90
3023;DHT22;1521;53.584;9.938;2023-06-05T16:20:06;25.70;99.90
3023;DHT22;1521;53.584;9.938;2023-06-05T16:22:33;25.80;99.90
3023;DHT22;1521;53.584;9.938;2023-06-05T16:24:58;25.60;99.90
3023;DHT22;1521;53.584;9.938;2023-06-05T16:27:24;25.40;99.90
3023;DHT22;1521;53.584;9.938;2023-06-05T16:29:50;25.40;99.90
3023;DHT22;1521;53.584;9.938;2023-06-05T16:32:17;25.60;99.90
3023;DHT22;1521;53.584;9.938;2023-06-05T16:34:42;25.70;99.90
3023;DHT22;1521;53.584;9.938;2023-06-05T16:37:08;25.90;99.90